createdAt,value
2016-08-13T00:00:08.057Z,1015.78
2016-08-13T00:01:08.039Z,1015.8
2016-08-13T00:02:08.022Z,1015.78
2016-08-13T00:03:08.006Z,1015.8
2016-08-13T00:04:07.988Z,1015.82
2016-08-13T00:05:07.973Z,1015.78
2016-08-13T00:06:07.957Z,1015.78
2016-08-13T00:07:07.939Z,1015.74
2016-08-13T00:08:07.921Z,1015.8
2016-08-13T00:09:07.905Z,1015.75
2016-08-13T00:10:07.893Z,1015.76
2016-08-13T00:11:07.875Z,1015.74
2016-08-13T00:12:07.858Z,1015.73
2016-08-13T00:13:07.841Z,1015.72
2016-08-13T00:14:07.826Z,1015.66
2016-08-13T00:15:07.811Z,1015.66
2016-08-13T00:16:07.795Z,1015.66
2016-08-13T00:17:07.775Z,1015.6
2016-08-13T00:18:07.759Z,1015.61
2016-08-13T00:19:07.742Z,1015.59
2016-08-13T00:20:07.726Z,1015.62
2016-08-13T00:21:07.713Z,1015.61
2016-08-13T00:22:07.697Z,1015.65
2016-08-13T00:23:07.676Z,1015.65
2016-08-13T00:24:07.662Z,1015.63
2016-08-13T00:25:07.644Z,1015.62
2016-08-13T00:26:07.627Z,1015.63
2016-08-13T00:27:07.614Z,1015.62
2016-08-13T00:28:07.597Z,1015.6
2016-08-13T00:29:07.579Z,1015.62
2016-08-13T00:30:07.562Z,1015.53
2016-08-13T00:31:07.548Z,1015.61
2016-08-13T00:32:07.532Z,1015.58
2016-08-13T00:33:07.514Z,1015.64
2016-08-13T00:34:07.499Z,1015.62
2016-08-13T00:35:07.481Z,1015.55
2016-08-13T00:36:07.467Z,1015.56
2016-08-13T00:37:07.450Z,1015.49
2016-08-13T00:38:07.436Z,1015.52
2016-08-13T00:39:07.417Z,1015.49
2016-08-13T00:40:07.401Z,1015.52
2016-08-13T00:41:07.384Z,1015.51
2016-08-13T00:42:07.368Z,1015.48
2016-08-13T00:43:07.357Z,1015.47
2016-08-13T00:44:07.339Z,1015.47
2016-08-13T00:45:07.323Z,1015.5
2016-08-13T00:46:07.307Z,1015.49
2016-08-13T00:47:07.295Z,1015.41
2016-08-13T00:48:07.269Z,1015.45
2016-08-13T00:49:07.252Z,1015.44
2016-08-13T00:50:07.238Z,1015.48
2016-08-13T00:51:07.219Z,1015.45
2016-08-13T00:52:07.193Z,1015.41
2016-08-13T00:53:07.188Z,1015.43
2016-08-13T00:54:07.173Z,1015.47
2016-08-13T00:55:07.156Z,1015.44
2016-08-13T00:56:07.145Z,1015.49
2016-08-13T00:57:07.122Z,1015.46
2016-08-13T00:58:07.106Z,1015.42
2016-08-13T00:59:07.094Z,1015.39
2016-08-13T01:00:07.076Z,1015.37
2016-08-13T01:01:07.059Z,1015.38
2016-08-13T01:02:07.041Z,1015.35
2016-08-13T01:03:07.024Z,1015.4
2016-08-13T01:04:07.008Z,1015.35
2016-08-13T01:05:06.990Z,1015.34
2016-08-13T01:06:06.974Z,1015.35
2016-08-13T01:07:06.958Z,1015.38
2016-08-13T01:08:06.940Z,1015.41
2016-08-13T01:09:06.930Z,1015.4
2016-08-13T01:10:06.909Z,1015.42
2016-08-13T01:11:06.897Z,1015.39
2016-08-13T01:12:06.881Z,1015.38
2016-08-13T01:13:06.859Z,1015.44
2016-08-13T01:14:06.845Z,1015.42
2016-08-13T01:15:06.828Z,1015.44
2016-08-13T01:16:06.812Z,1015.39
2016-08-13T01:17:06.797Z,1015.4
2016-08-13T01:18:06.779Z,1015.36
2016-08-13T01:19:06.764Z,1015.34
2016-08-13T01:20:06.745Z,1015.31
2016-08-13T01:21:06.730Z,1015.32
2016-08-13T01:22:06.714Z,1015.29
2016-08-13T01:23:06.698Z,1015.27
2016-08-13T01:24:06.682Z,1015.27
2016-08-13T01:25:06.666Z,1015.28
2016-08-13T01:26:06.649Z,1015.24
2016-08-13T01:27:06.632Z,1015.19
2016-08-13T01:28:06.616Z,1015.17
2016-08-13T01:29:06.600Z,1015.17
2016-08-13T01:30:06.585Z,1015.13
2016-08-13T01:31:06.567Z,1015.15
2016-08-13T01:32:06.551Z,1015.11
2016-08-13T01:33:06.542Z,1015.13
2016-08-13T01:34:06.517Z,1015.13
2016-08-13T01:35:06.503Z,1015.17
2016-08-13T01:36:06.484Z,1015.16
2016-08-13T01:37:06.469Z,1015.18
2016-08-13T01:38:06.452Z,1015.22
2016-08-13T01:39:06.423Z,1015.18
2016-08-13T01:40:06.407Z,1015.21
2016-08-13T01:41:06.395Z,1015.22
2016-08-13T01:42:06.386Z,1015.24
2016-08-13T01:43:06.368Z,1015.29
2016-08-13T01:44:06.353Z,1015.25
2016-08-13T01:45:06.339Z,1015.23
2016-08-13T01:46:06.322Z,1015.23
2016-08-13T01:47:06.309Z,1015.24
2016-08-13T01:48:06.291Z,1015.2
2016-08-13T01:49:06.275Z,1015.21
2016-08-13T01:50:06.259Z,1015.23
2016-08-13T01:51:06.244Z,1015.17
2016-08-13T01:52:06.238Z,1015.19
2016-08-13T01:53:06.215Z,1015.14
2016-08-13T01:54:06.206Z,1015.13
2016-08-13T01:55:06.181Z,1015.09
2016-08-13T01:56:06.161Z,1015.09
2016-08-13T01:57:06.144Z,1015.08
2016-08-13T01:58:06.126Z,1015.12
2016-08-13T01:59:06.110Z,1015.11
2016-08-13T02:00:06.096Z,1015.11
2016-08-13T02:01:06.077Z,1015.06
2016-08-13T02:02:06.061Z,1015.09
2016-08-13T02:03:06.044Z,1015.04
2016-08-13T02:04:06.031Z,1015.01
2016-08-13T02:05:06.011Z,1015.03
2016-08-13T02:06:05.994Z,1015.03
2016-08-13T02:07:05.981Z,1015.01
2016-08-13T02:08:05.964Z,1014.98
2016-08-13T02:09:05.948Z,1015.01
2016-08-13T02:10:05.932Z,1015.03
2016-08-13T02:11:05.914Z,1014.97
2016-08-13T02:12:05.897Z,1014.98
2016-08-13T02:13:05.879Z,1015
2016-08-13T02:14:05.865Z,1014.99
2016-08-13T02:15:05.850Z,1014.96
2016-08-13T02:16:05.829Z,1015.01
2016-08-13T02:17:05.813Z,1015.04
2016-08-13T02:18:05.796Z,1015.03
2016-08-13T02:19:05.781Z,1015.02
2016-08-13T02:20:05.767Z,1014.96
2016-08-13T02:21:05.749Z,1015
2016-08-13T02:22:05.736Z,1014.96
2016-08-13T02:23:05.714Z,1014.94
2016-08-13T02:24:05.701Z,1014.95
2016-08-13T02:25:05.685Z,1014.97
2016-08-13T02:26:05.664Z,1014.92
2016-08-13T02:27:05.649Z,1014.95
2016-08-13T02:28:05.633Z,1014.98
2016-08-13T02:29:05.620Z,1014.87
2016-08-13T02:30:05.599Z,1014.91
2016-08-13T02:31:05.589Z,1014.95
2016-08-13T02:32:05.569Z,1014.86
2016-08-13T02:33:05.551Z,1014.87
2016-08-13T02:34:05.533Z,1014.85
2016-08-13T02:35:05.523Z,1014.86
2016-08-13T02:36:05.502Z,1014.82
2016-08-13T02:37:05.482Z,1014.86
2016-08-13T02:38:05.466Z,1014.89
2016-08-13T02:39:05.452Z,1014.86
2016-08-13T02:40:05.437Z,1014.82
2016-08-13T02:41:05.419Z,1014.8
2016-08-13T02:42:05.399Z,1014.76
2016-08-13T02:43:05.386Z,1014.78
2016-08-13T02:44:05.368Z,1014.84
2016-08-13T02:45:05.354Z,1014.85
2016-08-13T02:46:05.335Z,1014.88
2016-08-13T02:47:05.319Z,1014.87
2016-08-13T02:48:05.302Z,1014.84
2016-08-13T02:49:05.286Z,1014.84
2016-08-13T02:50:05.269Z,1014.89
2016-08-13T02:51:05.253Z,1014.89
2016-08-13T02:52:05.236Z,1014.9
2016-08-13T02:53:05.222Z,1014.84
2016-08-13T02:54:05.205Z,1014.8
2016-08-13T02:55:05.185Z,1014.81
2016-08-13T02:56:05.171Z,1014.82
2016-08-13T02:57:05.153Z,1014.78
2016-08-13T02:58:05.135Z,1014.84
2016-08-13T02:59:05.118Z,1014.76
2016-08-13T03:00:05.102Z,1014.82
2016-08-13T03:01:05.087Z,1014.83
2016-08-13T03:02:05.068Z,1014.84
2016-08-13T03:03:05.057Z,1014.88
2016-08-13T03:04:05.037Z,1014.9
2016-08-13T03:05:05.021Z,1014.91
2016-08-13T03:06:05.002Z,1014.91
2016-08-13T03:07:04.990Z,1014.96
2016-08-13T03:08:04.970Z,1014.87
2016-08-13T03:09:04.958Z,1014.85
2016-08-13T03:10:04.939Z,1014.85
2016-08-13T03:11:04.921Z,1014.87
2016-08-13T03:12:04.904Z,1014.84
2016-08-13T03:13:04.886Z,1014.83
2016-08-13T03:14:04.877Z,1014.82
2016-08-13T03:15:04.855Z,1014.74
2016-08-13T03:16:04.838Z,1014.76
2016-08-13T03:17:04.821Z,1014.76
2016-08-13T03:18:04.806Z,1014.78
2016-08-13T03:19:04.788Z,1014.75
2016-08-13T03:20:04.772Z,1014.7
2016-08-13T03:21:04.755Z,1014.71
2016-08-13T03:22:04.739Z,1014.68
2016-08-13T03:23:04.719Z,1014.65
2016-08-13T03:24:04.705Z,1014.64
2016-08-13T03:25:04.688Z,1014.63
2016-08-13T03:26:04.672Z,1014.67
2016-08-13T03:27:04.655Z,1014.59
2016-08-13T03:28:04.638Z,1014.57
2016-08-13T03:29:04.623Z,1014.58
2016-08-13T03:30:04.606Z,1014.52
2016-08-13T03:31:04.589Z,1014.51
2016-08-13T03:32:04.575Z,1014.54
2016-08-13T03:33:04.556Z,1014.47
2016-08-13T03:34:04.542Z,1014.48
2016-08-13T03:35:04.521Z,1014.49
2016-08-13T03:36:04.504Z,1014.5
2016-08-13T03:37:04.487Z,1014.5
2016-08-13T03:38:04.470Z,1014.45
2016-08-13T03:39:04.452Z,1014.51
2016-08-13T03:40:04.440Z,1014.5
2016-08-13T03:41:04.421Z,1014.5
2016-08-13T03:42:04.405Z,1014.56
2016-08-13T03:43:04.390Z,1014.55
2016-08-13T03:44:04.373Z,1014.52
2016-08-13T03:45:04.362Z,1014.51
2016-08-13T03:46:04.337Z,1014.53
2016-08-13T03:47:04.325Z,1014.53
2016-08-13T03:48:04.305Z,1014.55
2016-08-13T03:49:04.288Z,1014.54
2016-08-13T03:50:04.273Z,1014.6
2016-08-13T03:51:04.257Z,1014.58
2016-08-13T03:52:04.241Z,1014.61
2016-08-13T03:53:04.221Z,1014.54
2016-08-13T03:54:04.207Z,1014.57
2016-08-13T03:55:04.185Z,1014.55
2016-08-13T03:56:04.176Z,1014.55
2016-08-13T03:57:04.155Z,1014.54
2016-08-13T03:58:04.141Z,1014.55
2016-08-13T03:59:04.123Z,1014.51
2016-08-13T04:00:04.103Z,1014.51
2016-08-13T04:01:04.088Z,1014.48
2016-08-13T04:02:04.072Z,1014.48
2016-08-13T04:03:04.055Z,1014.49
2016-08-13T04:04:04.038Z,1014.45
2016-08-13T04:05:04.020Z,1014.5
2016-08-13T04:06:04.012Z,1014.41
2016-08-13T04:07:03.989Z,1014.45
2016-08-13T04:08:03.972Z,1014.5
2016-08-13T04:09:03.956Z,1014.47
2016-08-13T04:10:03.941Z,1014.5
2016-08-13T04:11:03.944Z,1014.47
2016-08-13T04:12:03.907Z,1014.57
2016-08-13T04:13:03.886Z,1014.56
2016-08-13T04:14:03.876Z,1014.57
2016-08-13T04:15:03.853Z,1014.59
2016-08-13T04:16:03.835Z,1014.57
2016-08-13T04:17:03.822Z,1014.57
2016-08-13T04:18:03.805Z,1014.61
2016-08-13T04:19:03.787Z,1014.61
2016-08-13T04:20:03.769Z,1014.62
2016-08-13T04:21:03.753Z,1014.61
2016-08-13T04:22:03.736Z,1014.6
2016-08-13T04:23:03.720Z,1014.65
2016-08-13T04:24:03.701Z,1014.66
2016-08-13T04:25:03.686Z,1014.67
2016-08-13T04:26:03.671Z,1014.68
2016-08-13T04:27:03.654Z,1014.67
2016-08-13T04:28:03.636Z,1014.66
2016-08-13T04:29:03.618Z,1014.64
2016-08-13T04:30:03.600Z,1014.67
2016-08-13T04:31:03.584Z,1014.66
2016-08-13T04:32:03.569Z,1014.63
2016-08-13T04:33:03.552Z,1014.67
2016-08-13T04:34:03.533Z,1014.69
2016-08-13T04:35:03.522Z,1014.7
2016-08-13T04:36:03.502Z,1014.71
2016-08-13T04:37:03.486Z,1014.76
2016-08-13T04:38:03.468Z,1014.73
2016-08-13T04:39:03.451Z,1014.76
2016-08-13T04:40:03.437Z,1014.7
2016-08-13T04:41:03.417Z,1014.73
2016-08-13T04:42:03.404Z,1014.72
2016-08-13T04:43:03.385Z,1014.75
2016-08-13T04:44:03.369Z,1014.8
2016-08-13T04:45:03.351Z,1014.76
2016-08-13T04:46:03.333Z,1014.79
2016-08-13T04:47:03.317Z,1014.81
2016-08-13T04:48:03.303Z,1014.82
2016-08-13T04:49:03.284Z,1014.86
2016-08-13T04:50:03.264Z,1014.84
2016-08-13T04:51:03.256Z,1014.82
2016-08-13T04:52:03.231Z,1014.84
2016-08-13T04:53:03.214Z,1014.83
2016-08-13T04:54:03.204Z,1014.83
2016-08-13T04:55:03.182Z,1014.79
2016-08-13T04:56:03.166Z,1014.82
2016-08-13T04:57:03.149Z,1014.82
2016-08-13T04:58:03.137Z,1014.85
2016-08-13T04:59:03.113Z,1014.9
2016-08-13T05:00:03.098Z,1014.91
2016-08-13T05:01:03.083Z,1014.88
2016-08-13T05:02:03.064Z,1014.87
2016-08-13T05:03:03.045Z,1014.83
2016-08-13T05:04:03.031Z,1014.84
2016-08-13T05:05:03.014Z,1014.87
2016-08-13T05:06:02.997Z,1014.9
2016-08-13T05:07:02.978Z,1014.91
2016-08-13T05:08:02.963Z,1014.93
2016-08-13T05:09:02.946Z,1014.91
2016-08-13T05:10:02.929Z,1014.9
2016-08-13T05:11:02.910Z,1014.88
2016-08-13T05:12:02.896Z,1014.92
2016-08-13T05:13:02.880Z,1014.88
2016-08-13T05:14:02.865Z,1014.92
2016-08-13T05:15:02.844Z,1014.91
2016-08-13T05:16:02.826Z,1014.92
2016-08-13T05:17:02.811Z,1014.99
2016-08-13T05:18:02.802Z,1015
2016-08-13T05:19:02.782Z,1015
2016-08-13T05:20:02.762Z,1015
2016-08-13T05:21:02.747Z,1015.05
2016-08-13T05:22:02.730Z,1014.98
2016-08-13T05:23:02.712Z,1014.99
2016-08-13T05:24:02.696Z,1014.97
2016-08-13T05:25:02.676Z,1014.97
2016-08-13T05:26:02.660Z,1014.98
2016-08-13T05:27:02.645Z,1014.97
2016-08-13T05:28:02.628Z,1014.99
2016-08-13T05:29:02.610Z,1014.94
2016-08-13T05:30:02.598Z,1015.02
2016-08-13T05:31:02.577Z,1014.92
2016-08-13T05:32:02.562Z,1015.02
2016-08-13T05:33:02.543Z,1014.96
2016-08-13T05:34:02.534Z,1014.92
2016-08-13T05:35:02.510Z,1014.94
2016-08-13T05:36:02.493Z,1014.91
2016-08-13T05:37:02.477Z,1014.96
2016-08-13T05:38:02.460Z,1014.91
2016-08-13T05:39:02.440Z,1014.95
2016-08-13T05:40:02.425Z,1014.92
2016-08-13T05:41:02.408Z,1014.91
2016-08-13T05:42:02.391Z,1014.92
2016-08-13T05:43:02.374Z,1014.96
2016-08-13T05:44:02.359Z,1014.99
2016-08-13T05:45:02.341Z,1014.99
2016-08-13T05:46:02.326Z,1015.03
2016-08-13T05:47:02.305Z,1015.02
2016-08-13T05:48:02.290Z,1014.97
2016-08-13T05:49:02.273Z,1015.01
2016-08-13T05:50:02.255Z,1015
2016-08-13T05:51:02.239Z,1015.04
2016-08-13T05:52:02.223Z,1014.96
2016-08-13T05:53:02.208Z,1014.93
2016-08-13T05:54:02.189Z,1014.93
2016-08-13T05:55:02.173Z,1014.93
2016-08-13T05:56:02.156Z,1014.93
2016-08-13T05:57:02.137Z,1014.91
2016-08-13T05:58:02.121Z,1014.95
2016-08-13T05:59:02.105Z,1014.99
2016-08-13T06:00:02.088Z,1014.96
2016-08-13T06:01:02.070Z,1015.01
2016-08-13T06:02:02.052Z,1014.93
2016-08-13T06:03:02.038Z,1014.94
2016-08-13T06:04:02.020Z,1014.88
2016-08-13T06:05:02.003Z,1014.88
2016-08-13T06:06:01.987Z,1014.96
2016-08-13T06:07:01.968Z,1014.91
2016-08-13T06:08:01.952Z,1014.94
2016-08-13T06:09:01.938Z,1014.95
2016-08-13T06:10:01.918Z,1014.92
2016-08-13T06:11:01.904Z,1014.94
2016-08-13T06:12:01.885Z,1014.99
2016-08-13T06:13:01.868Z,1015.01
2016-08-13T06:14:01.848Z,1014.97
2016-08-13T06:15:01.835Z,1014.9
2016-08-13T06:16:01.814Z,1014.89
2016-08-13T06:17:01.802Z,1014.98
2016-08-13T06:18:01.783Z,1014.98
2016-08-13T06:19:01.766Z,1015
2016-08-13T06:20:01.786Z,1015.01
2016-08-13T06:21:01.731Z,1014.95
2016-08-13T06:22:01.728Z,1014.95
2016-08-13T06:23:01.697Z,1014.94
2016-08-13T06:24:01.681Z,1014.92
2016-08-13T06:25:01.669Z,1014.93
2016-08-13T06:26:01.647Z,1014.88
2016-08-13T06:27:01.631Z,1014.85
2016-08-13T06:28:01.613Z,1014.92
2016-08-13T06:29:01.601Z,1014.93
2016-08-13T06:30:01.581Z,1014.86
2016-08-13T06:31:01.561Z,1014.9
2016-08-13T06:32:01.547Z,1014.95
2016-08-13T06:33:01.528Z,1014.94
2016-08-13T06:34:01.516Z,1014.9
2016-08-13T06:35:01.494Z,1014.92
2016-08-13T06:36:01.479Z,1014.95
2016-08-13T06:37:01.464Z,1014.92
2016-08-13T06:38:01.445Z,1014.93
2016-08-13T06:39:01.431Z,1014.94
2016-08-13T06:40:01.410Z,1015.06
2016-08-13T06:41:01.394Z,1014.99
2016-08-13T06:42:01.374Z,1014.98
2016-08-13T06:43:01.365Z,1015.06
2016-08-13T06:44:01.342Z,1015
2016-08-13T06:45:01.326Z,1014.98
2016-08-13T06:46:01.310Z,1015.03
2016-08-13T06:47:01.292Z,1014.97
2016-08-13T06:48:01.280Z,1015.01
2016-08-13T06:49:01.257Z,1015.07
2016-08-13T06:50:01.242Z,1014.95
2016-08-13T06:51:01.226Z,1015
2016-08-13T06:52:01.208Z,1015.04
2016-08-13T06:53:01.191Z,1014.96
2016-08-13T06:54:01.176Z,1014.98
2016-08-13T06:55:01.157Z,1014.95
2016-08-13T06:56:01.141Z,1014.97
2016-08-13T06:57:01.126Z,1015.04
2016-08-13T06:58:01.107Z,1015.08
2016-08-13T06:59:01.092Z,1015.03
2016-08-13T07:00:01.073Z,1015.06
2016-08-13T07:01:01.057Z,1015.08
2016-08-13T07:02:01.043Z,1015.08
2016-08-13T07:03:01.022Z,1015.08
2016-08-13T07:04:01.006Z,1015.2
2016-08-13T07:05:00.991Z,1015.12
2016-08-13T07:06:00.973Z,1015.12
2016-08-13T07:07:00.955Z,1015.16
2016-08-13T07:08:00.939Z,1015.16
2016-08-13T07:09:00.922Z,1015.06
2016-08-13T07:10:00.903Z,1015.09
2016-08-13T07:11:00.896Z,1015.14
2016-08-13T07:12:00.870Z,1015.13
2016-08-13T07:13:00.858Z,1015.19
2016-08-13T07:14:00.838Z,1015.2
2016-08-13T07:15:00.821Z,1015.21
2016-08-13T07:16:00.804Z,1015.21
2016-08-13T07:17:00.785Z,1015.24
2016-08-13T07:18:00.769Z,1015.23
2016-08-13T07:19:00.750Z,1015.21
2016-08-13T07:20:00.734Z,1015.26
2016-08-13T07:21:00.717Z,1015.2
2016-08-13T07:22:00.700Z,1015.27
2016-08-13T07:23:00.684Z,1015.34
2016-08-13T07:24:00.668Z,1015.28
2016-08-13T07:25:00.651Z,1015.31
2016-08-13T07:26:00.641Z,1015.24
2016-08-13T07:27:00.615Z,1015.21
2016-08-13T07:28:00.601Z,1015.26
2016-08-13T07:29:00.582Z,1015.25
2016-08-13T07:30:00.567Z,1015.22
2016-08-13T07:31:00.552Z,1015.34
2016-08-13T07:32:00.534Z,1015.31
2016-08-13T07:33:00.513Z,1015.32
2016-08-13T07:34:00.499Z,1015.32
2016-08-13T07:35:00.486Z,1015.31
2016-08-13T07:36:00.461Z,1015.32
2016-08-13T07:37:00.448Z,1015.38
2016-08-13T07:38:00.434Z,1015.29
2016-08-13T07:39:00.413Z,1015.38
2016-08-13T07:40:00.396Z,1015.32
2016-08-13T07:41:00.378Z,1015.33
2016-08-13T07:42:00.363Z,1015.31
2016-08-13T07:43:00.347Z,1015.3
2016-08-13T07:44:00.329Z,1015.31
2016-08-13T07:45:00.312Z,1015.3
2016-08-13T07:46:00.295Z,1015.33
2016-08-13T07:47:00.275Z,1015.31
2016-08-13T07:48:00.259Z,1015.3
2016-08-13T07:49:00.245Z,1015.3
2016-08-13T07:50:00.234Z,1015.31
2016-08-13T07:51:00.211Z,1015.28
2016-08-13T07:52:00.193Z,1015.31
2016-08-13T07:53:00.175Z,1015.28
2016-08-13T07:54:00.160Z,1015.3
2016-08-13T07:55:00.142Z,1015.31
2016-08-13T07:56:00.126Z,1015.33
2016-08-13T07:57:00.113Z,1015.35
2016-08-13T07:58:00.092Z,1015.38
2016-08-13T07:59:00.073Z,1015.38
2016-08-13T08:00:00.059Z,1015.35
2016-08-13T08:01:00.041Z,1015.24
2016-08-13T08:02:00.024Z,1015.23
2016-08-13T08:03:00.008Z,1015.18
2016-08-13T08:03:59.995Z,1015.22
2016-08-13T08:04:59.974Z,1015.19
2016-08-13T08:05:59.955Z,1015.24
2016-08-13T08:06:59.941Z,1015.26
2016-08-13T08:07:59.924Z,1015.23
2016-08-13T08:08:59.905Z,1015.17
2016-08-13T08:09:59.890Z,1015.21
2016-08-13T08:10:59.876Z,1015.19
2016-08-13T08:11:59.857Z,1015.21
2016-08-13T08:12:59.842Z,1015.18
2016-08-13T08:13:59.823Z,1015.19
2016-08-13T08:14:59.805Z,1015.17
2016-08-13T08:15:59.789Z,1015.17
2016-08-13T08:16:59.770Z,1015.18
2016-08-13T08:17:59.755Z,1015.18
2016-08-13T08:18:59.737Z,1015.27
2016-08-13T08:19:59.719Z,1015.22
2016-08-13T08:20:59.702Z,1015.25
2016-08-13T08:21:59.692Z,1015.21
2016-08-13T08:22:59.671Z,1015.31
2016-08-13T08:23:59.652Z,1015.2
2016-08-13T08:24:59.637Z,1015.22
2016-08-13T08:25:59.619Z,1015.2
2016-08-13T08:26:59.606Z,1015.2
2016-08-13T08:27:59.587Z,1015.2
2016-08-13T08:28:59.570Z,1015.17
2016-08-13T08:29:59.552Z,1015.29
2016-08-13T08:30:59.537Z,1015.3
2016-08-13T08:31:59.521Z,1015.31
2016-08-13T08:32:59.501Z,1015.32
2016-08-13T08:33:59.490Z,1015.37
2016-08-13T08:34:59.469Z,1015.42
2016-08-13T08:35:59.453Z,1015.42
2016-08-13T08:36:59.437Z,1015.38
2016-08-13T08:37:59.417Z,1015.38
2016-08-13T08:38:59.399Z,1015.34
2016-08-13T08:39:59.386Z,1015.33
2016-08-13T08:40:59.370Z,1015.38
2016-08-13T08:41:59.350Z,1015.36
2016-08-13T08:42:59.335Z,1015.32
2016-08-13T08:43:59.319Z,1015.33
2016-08-13T08:44:59.302Z,1015.35
2016-08-13T08:45:59.283Z,1015.29
2016-08-13T08:46:59.273Z,1015.38
2016-08-13T08:47:59.253Z,1015.35
2016-08-13T08:48:59.234Z,1015.31
2016-08-13T08:49:59.219Z,1015.31
2016-08-13T08:50:59.201Z,1015.38
2016-08-13T08:51:59.183Z,1015.33
2016-08-13T08:52:59.166Z,1015.42
2016-08-13T08:53:59.149Z,1015.32
2016-08-13T08:54:59.133Z,1015.37
2016-08-13T08:55:59.120Z,1015.34
2016-08-13T08:56:59.098Z,1015.35
2016-08-13T08:57:59.085Z,1015.39
2016-08-13T08:58:59.070Z,1015.39
2016-08-13T08:59:59.047Z,1015.37
2016-08-13T09:00:59.040Z,1015.34
2016-08-13T09:01:59.015Z,1015.4
2016-08-13T09:02:58.998Z,1015.42
2016-08-13T09:03:58.979Z,1015.47
2016-08-13T09:04:58.966Z,1015.42
2016-08-13T09:05:58.951Z,1015.47
2016-08-13T09:06:58.936Z,1015.48
2016-08-13T09:07:58.914Z,1015.45
2016-08-13T09:08:58.903Z,1015.49
2016-08-13T09:09:58.885Z,1015.48
2016-08-13T09:10:58.872Z,1015.47
2016-08-13T09:11:58.847Z,1015.49
2016-08-13T09:12:58.833Z,1015.51
2016-08-13T09:13:58.814Z,1015.49
2016-08-13T09:14:58.798Z,1015.49
2016-08-13T09:15:58.781Z,1015.51
2016-08-13T09:16:58.770Z,1015.55
2016-08-13T09:17:58.748Z,1015.57
2016-08-13T09:18:58.729Z,1015.54
2016-08-13T09:19:58.714Z,1015.48
2016-08-13T09:20:58.698Z,1015.51
2016-08-13T09:21:58.678Z,1015.54
2016-08-13T09:22:58.662Z,1015.57
2016-08-13T09:23:58.647Z,1015.53
2016-08-13T09:24:58.627Z,1015.5
2016-08-13T09:25:58.613Z,1015.49
2016-08-13T09:26:58.597Z,1015.52
2016-08-13T09:27:58.580Z,1015.54
2016-08-13T09:28:58.563Z,1015.49
2016-08-13T09:29:58.544Z,1015.42
2016-08-13T09:30:58.529Z,1015.56
2016-08-13T09:31:58.512Z,1015.51
2016-08-13T09:32:58.495Z,1015.55
2016-08-13T09:33:58.479Z,1015.54
2016-08-13T09:34:58.465Z,1015.47
2016-08-13T09:35:58.446Z,1015.51
2016-08-13T09:36:58.429Z,1015.43
2016-08-13T09:37:58.411Z,1015.43
2016-08-13T09:38:58.397Z,1015.45
2016-08-13T09:39:58.380Z,1015.43
2016-08-13T09:40:58.363Z,1015.44
2016-08-13T09:41:58.345Z,1015.43
2016-08-13T09:42:58.330Z,1015.47
2016-08-13T09:43:58.311Z,1015.52
2016-08-13T09:44:58.298Z,1015.45
2016-08-13T09:45:58.280Z,1015.39
2016-08-13T09:46:58.261Z,1015.47
2016-08-13T09:47:58.246Z,1015.49
2016-08-13T09:48:58.227Z,1015.51
2016-08-13T09:49:58.212Z,1015.5
2016-08-13T09:50:58.193Z,1015.49
2016-08-13T09:51:58.177Z,1015.55
2016-08-13T09:52:58.162Z,1015.5
2016-08-13T09:53:58.146Z,1015.42
2016-08-13T09:54:58.126Z,1015.38
2016-08-13T09:55:58.114Z,1015.37
2016-08-13T09:56:58.095Z,1015.38
2016-08-13T09:57:58.082Z,1015.42
2016-08-13T09:58:58.061Z,1015.39
2016-08-13T09:59:58.048Z,1015.41
2016-08-13T10:00:58.028Z,1015.38
2016-08-13T10:01:58.011Z,1015.36
2016-08-13T10:02:57.994Z,1015.41
2016-08-13T10:03:57.977Z,1015.52
2016-08-13T10:04:57.974Z,1015.39
2016-08-13T10:05:57.944Z,1015.43
2016-08-13T10:06:57.927Z,1015.42
2016-08-13T10:07:57.913Z,1015.43
2016-08-13T10:08:57.894Z,1015.42
2016-08-13T10:09:57.876Z,1015.47
2016-08-13T10:10:57.861Z,1015.41
2016-08-13T10:11:57.842Z,1015.43
2016-08-13T10:12:57.828Z,1015.43
2016-08-13T10:13:57.812Z,1015.51
2016-08-13T10:14:57.795Z,1015.49
2016-08-13T10:15:57.777Z,1015.5
2016-08-13T10:16:57.761Z,1015.51
2016-08-13T10:17:57.748Z,1015.52
2016-08-13T10:18:57.737Z,1015.52
2016-08-13T10:19:57.710Z,1015.51
2016-08-13T10:20:57.694Z,1015.51
2016-08-13T10:21:57.682Z,1015.45
2016-08-13T10:22:57.661Z,1015.52
2016-08-13T10:23:57.644Z,1015.55
2016-08-13T10:24:57.627Z,1015.5
2016-08-13T10:25:57.610Z,1015.52
2016-08-13T10:26:57.593Z,1015.56
2016-08-13T10:27:57.577Z,1015.54
2016-08-13T10:28:57.562Z,1015.57
2016-08-13T10:29:57.544Z,1015.55
2016-08-13T10:30:57.527Z,1015.54
2016-08-13T10:31:57.511Z,1015.54
2016-08-13T10:32:57.493Z,1015.6
2016-08-13T10:33:57.476Z,1015.57
2016-08-13T10:34:57.457Z,1015.59
2016-08-13T10:35:57.443Z,1015.57
2016-08-13T10:36:57.427Z,1015.53
2016-08-13T10:37:57.409Z,1015.51
2016-08-13T10:38:57.395Z,1015.48
2016-08-13T10:39:57.377Z,1015.48
2016-08-13T10:40:57.359Z,1015.48
2016-08-13T10:41:57.351Z,1015.43
2016-08-13T10:42:57.329Z,1015.45
2016-08-13T10:43:57.310Z,1015.5
2016-08-13T10:44:57.292Z,1015.45
2016-08-13T10:45:57.273Z,1015.5
2016-08-13T10:46:57.259Z,1015.55
2016-08-13T10:47:57.243Z,1015.51
2016-08-13T10:48:57.229Z,1015.5
2016-08-13T10:49:57.208Z,1015.47
2016-08-13T10:50:57.194Z,1015.51
2016-08-13T10:51:57.175Z,1015.47
2016-08-13T10:52:57.161Z,1015.47
2016-08-13T10:53:57.141Z,1015.53
2016-08-13T10:54:57.124Z,1015.45
2016-08-13T10:55:57.110Z,1015.47
2016-08-13T10:56:57.094Z,1015.48
2016-08-13T10:57:57.076Z,1015.51
2016-08-13T10:58:57.060Z,1015.5
2016-08-13T10:59:57.042Z,1015.52
2016-08-13T11:00:57.027Z,1015.49
2016-08-13T11:01:57.010Z,1015.5
2016-08-13T11:02:56.994Z,1015.6
2016-08-13T11:03:56.983Z,1015.57
2016-08-13T11:04:56.962Z,1015.52
2016-08-13T11:05:56.944Z,1015.57
2016-08-13T11:06:56.928Z,1015.53
2016-08-13T11:07:56.911Z,1015.59
2016-08-13T11:08:56.894Z,1015.56
2016-08-13T11:09:56.879Z,1015.53
2016-08-13T11:10:56.860Z,1015.56
2016-08-13T11:11:56.846Z,1015.57
2016-08-13T11:12:56.829Z,1015.52
2016-08-13T11:13:56.811Z,1015.56
2016-08-13T11:14:56.793Z,1015.53
2016-08-13T11:15:56.777Z,1015.57
2016-08-13T11:16:56.762Z,1015.57
2016-08-13T11:17:56.749Z,1015.62
2016-08-13T11:18:56.728Z,1015.62
2016-08-13T11:19:56.720Z,1015.63
2016-08-13T11:20:56.696Z,1015.65
2016-08-13T11:21:56.681Z,1015.66
2016-08-13T11:22:56.664Z,1015.73
2016-08-13T11:23:56.648Z,1015.64
2016-08-13T11:24:56.631Z,1015.63
2016-08-13T11:25:56.617Z,1015.62
2016-08-13T11:26:56.598Z,1015.64
2016-08-13T11:27:56.581Z,1015.63
2016-08-13T11:28:56.563Z,1015.65
2016-08-13T11:29:56.552Z,1015.66
2016-08-13T11:30:56.540Z,1015.71
2016-08-13T11:31:56.514Z,1015.7
2016-08-13T11:32:56.499Z,1015.74
2016-08-13T11:33:56.479Z,1015.71
2016-08-13T11:34:56.466Z,1015.74
2016-08-13T11:35:56.448Z,1015.76
2016-08-13T11:36:56.431Z,1015.76
2016-08-13T11:37:56.415Z,1015.71
2016-08-13T11:38:56.401Z,1015.69
2016-08-13T11:39:56.382Z,1015.71
2016-08-13T11:40:56.372Z,1015.73
2016-08-13T11:41:56.350Z,1015.75
2016-08-13T11:42:56.332Z,1015.83
2016-08-13T11:43:56.318Z,1015.8
2016-08-13T11:44:56.297Z,1015.79
2016-08-13T11:45:56.284Z,1015.76
2016-08-13T11:46:56.266Z,1015.77
2016-08-13T11:47:56.251Z,1015.77
2016-08-13T11:48:56.232Z,1015.74
2016-08-13T11:49:56.218Z,1015.75
2016-08-13T11:50:56.201Z,1015.67
2016-08-13T11:51:56.183Z,1015.76
2016-08-13T11:52:56.169Z,1015.69
2016-08-13T11:53:56.150Z,1015.67
2016-08-13T11:54:56.138Z,1015.69
2016-08-13T11:55:56.117Z,1015.71
2016-08-13T11:56:56.102Z,1015.66
2016-08-13T11:57:56.082Z,1015.66
2016-08-13T11:58:56.067Z,1015.65
2016-08-13T11:59:56.052Z,1015.63
2016-08-13T12:00:56.040Z,1015.65
2016-08-13T12:01:56.019Z,1015.63
2016-08-13T12:02:56.003Z,1015.71
2016-08-13T12:03:55.984Z,1015.68
2016-08-13T12:04:55.969Z,1015.67
2016-08-13T12:05:55.952Z,1015.76
2016-08-13T12:06:55.936Z,1015.68
2016-08-13T12:07:55.922Z,1015.69